Time;durP1;ratioP1;P1;durP2;ratioP2;P2;SDS_P1;SDS_P2;PMS_P1;PMS_P2;Temp;Humidity;BMP_temperature;BMP_pressure;BME280_temperature;BME280_humidity;BME280_pressure;Samples;Min_cycle;Max_cycle;Signal;HPM_P1;HPM_P2
2023/05/05 00:02:17;;;;;;;9.52;4.18;;;17.60;61.40;;;;;;5053018;28;20024;-76
2023/05/05 00:04:43;;;;;;;13.75;4.53;;;17.50;61.70;;;;;;5054013;28;20527;-76
2023/05/05 00:07:09;;;;;;;7.03;4.28;;;17.50;61.80;;;;;;5053753;28;20378;-76
2023/05/05 00:09:34;;;;;;;8.15;4.63;;;17.50;61.90;;;;;;5052577;28;20033;-76
2023/05/05 00:12:00;;;;;;;10.63;4.30;;;17.50;62.00;;;;;;5053720;28;20456;-76
2023/05/05 00:14:25;;;;;;;7.60;4.53;;;17.50;61.90;;;;;;5053838;28;20028;-76
2023/05/05 00:16:51;;;;;;;12.45;5.15;;;17.40;62.30;;;;;;5053680;28;20059;-76
2023/05/05 00:19:17;;;;;;;11.77;5.00;;;17.40;62.20;;;;;;5069192;28;20116;-75
2023/05/05 00:21:42;;;;;;;7.25;4.82;;;17.40;62.50;;;;;;5052447;28;20025;-76
2023/05/05 00:24:09;;;;;;;7.13;4.35;;;17.40;62.90;;;;;;5052090;28;20025;-76
2023/05/05 00:26:34;;;;;;;8.05;4.15;;;17.40;62.60;;;;;;5053569;28;20355;-76
2023/05/05 00:29:00;;;;;;;9.13;4.97;;;17.40;62.60;;;;;;5052382;28;20025;-76
2023/05/05 00:31:26;;;;;;;8.88;5.18;;;17.40;63.30;;;;;;5053536;28;20025;-76
2023/05/05 00:33:51;;;;;;;7.78;4.45;;;17.30;63.60;;;;;;5068590;28;20029;-76
2023/05/05 00:36:17;;;;;;;9.85;4.78;;;17.30;64.00;;;;;;5051610;28;20029;-76
2023/05/05 00:38:43;;;;;;;8.82;5.03;;;17.30;64.10;;;;;;5069284;28;20507;-75
2023/05/05 00:41:08;;;;;;;13.75;5.75;;;17.20;64.20;;;;;;5053410;28;20089;-76
2023/05/05 00:43:34;;;;;;;8.27;4.85;;;17.20;64.30;;;;;;5069271;28;20090;-76
2023/05/05 00:46:05;;;;;;;11.18;5.28;;;17.10;64.60;;;;;;5053583;28;20028;-76
2023/05/05 00:48:32;;;;;;;8.35;5.30;;;17.10;64.90;;;;;;5053491;28;20416;-76
2023/05/05 00:50:58;;;;;;;8.25;5.22;;;17.00;65.10;;;;;;5053521;28;20070;-76
2023/05/05 00:53:26;;;;;;;9.70;5.97;;;17.00;65.40;;;;;;5051926;28;20025;-76
2023/05/05 00:55:52;;;;;;;7.82;5.63;;;16.90;65.50;;;;;;5053829;28;20017;-76
2023/05/05 00:58:18;;;;;;;9.02;5.80;;;16.90;65.70;;;;;;5052082;28;20063;-76
2023/05/05 01:00:44;;;;;;;9.73;5.38;;;16.90;66.40;;;;;;5068640;28;20021;-75
2023/05/05 01:03:11;;;;;;;9.93;6.05;;;16.80;66.50;;;;;;5051903;28;20507;-76
2023/05/05 01:06:18;;;;;;;9.57;5.68;;;16.80;66.60;;;;;;5053262;28;20465;-76
2023/05/05 01:08:44;;;;;;;8.77;5.57;;;16.80;67.20;;;;;;5048440;28;20124;-76
2023/05/05 01:11:25;;;;;;;10.80;5.75;;;16.80;67.10;;;;;;5051958;28;20472;-75
2023/05/05 01:14:07;;;;;;;10.70;5.45;;;16.80;67.30;;;;;;5052951;28;20025;-76
2023/05/05 01:16:34;;;;;;;12.77;5.82;;;16.80;67.40;;;;;;5051759;28;20021;-76
2023/05/05 01:19:14;;;;;;;10.32;5.70;;;16.80;67.40;;;;;;5051917;28;20031;-75
2023/05/05 01:21:48;;;;;;;10.90;6.07;;;16.80;67.20;;;;;;5053370;28;20477;-75
2023/05/05 01:24:44;;;;;;;9.38;6.68;;;16.70;67.00;;;;;;5053310;28;20049;-75
2023/05/05 01:27:37;;;;;;;11.05;7.10;;;16.70;67.10;;;;;;5051692;28;20041;-75
2023/05/05 01:30:15;;;;;;;11.20;7.30;;;16.60;67.00;;;;;;5051729;28;20491;-75
2023/05/05 01:32:55;;;;;;;10.85;7.03;;;16.60;67.20;;;;;;5053073;28;20418;-75
2023/05/05 01:35:31;;;;;;;13.43;8.93;;;16.50;67.50;;;;;;5052871;28;20033;-75
2023/05/05 01:38:40;;;;;;;11.45;7.47;;;16.50;68.30;;;;;;5053063;28;20060;-76
2023/05/05 01:41:18;;;;;;;13.55;8.95;;;16.40;68.50;;;;;;5042328;28;20069;-76
2023/05/05 01:43:47;;;;;;;12.98;9.13;;;16.40;68.60;;;;;;5052855;28;20058;-76
2023/05/05 01:46:14;;;;;;;14.45;8.55;;;16.40;69.00;;;;;;5053849;28;20039;-74
2023/05/05 01:48:42;;;;;;;12.63;9.10;;;16.40;69.60;;;;;;5056546;28;20091;-75
2023/05/05 01:51:10;;;;;;;13.02;9.50;;;16.30;69.70;;;;;;5056473;28;20052;-75
2023/05/05 01:53:36;;;;;;;16.95;11.52;;;16.30;70.30;;;;;;5056435;28;20021;-74
2023/05/05 01:56:03;;;;;;;17.40;11.80;;;16.20;71.30;;;;;;5056335;28;20342;-75
2023/05/05 01:58:31;;;;;;;16.10;12.07;;;16.20;72.50;;;;;;5056358;28;20061;-76
2023/05/05 02:00:58;;;;;;;18.25;12.50;;;16.20;72.80;;;;;;5056173;28;20025;-75
2023/05/05 02:03:26;;;;;;;16.73;12.02;;;16.20;73.30;;;;;;5056520;28;20032;-76
2023/05/05 02:05:52;;;;;;;15.30;10.90;;;16.20;73.20;;;;;;5056176;28;20032;-75
2023/05/05 02:08:19;;;;;;;16.98;12.68;;;16.10;73.60;;;;;;5056237;28;20029;-75
2023/05/05 02:10:47;;;;;;;16.20;12.50;;;16.10;73.90;;;;;;5056519;28;20122;-75
2023/05/05 02:13:14;;;;;;;18.30;12.40;;;16.10;74.20;;;;;;5071840;28;20449;-75
2023/05/05 02:15:42;;;;;;;15.43;11.63;;;16.10;74.30;;;;;;5055970;28;20037;-76
2023/05/05 02:18:08;;;;;;;19.55;12.57;;;16.10;74.30;;;;;;5054804;28;20037;-76
2023/05/05 02:20:37;;;;;;;17.92;12.90;;;16.00;75.00;;;;;;5056043;28;20033;-76
2023/05/05 02:23:04;;;;;;;20.52;13.20;;;16.00;74.70;;;;;;5054583;28;20060;-76
2023/05/05 02:25:37;;;;;;;15.88;11.40;;;16.00;75.60;;;;;;5056167;28;20029;-75
2023/05/05 02:28:04;;;;;;;16.95;12.00;;;15.90;74.90;;;;;;5055853;28;20082;-76
2023/05/05 02:30:32;;;;;;;15.98;10.82;;;15.90;74.80;;;;;;5055958;28;20032;-75
2023/05/05 02:33:07;;;;;;;16.88;11.68;;;15.90;74.90;;;;;;5055606;28;20021;-75
2023/05/05 02:35:39;;;;;;;17.38;11.63;;;15.90;75.20;;;;;;5055611;28;20048;-76
2023/05/05 02:38:10;;;;;;;18.95;12.18;;;15.90;75.50;;;;;;5054666;28;20036;-76
2023/05/05 02:40:37;;;;;;;15.10;10.93;;;15.90;75.90;;;;;;5054185;28;20033;-76
2023/05/05 02:43:09;;;;;;;17.02;12.25;;;15.90;76.00;;;;;;5054047;28;20037;-75
2023/05/05 02:45:35;;;;;;;17.52;11.75;;;15.90;76.20;;;;;;5054056;28;20441;-76
2023/05/05 02:48:02;;;;;;;18.63;13.32;;;15.80;76.30;;;;;;5054090;28;20049;-75
2023/05/05 02:50:30;;;;;;;19.55;13.15;;;15.80;76.50;;;;;;5054343;28;20078;-76
2023/05/05 02:52:56;;;;;;;17.13;12.05;;;15.80;76.60;;;;;;5070966;28;20116;-75
2023/05/05 02:55:22;;;;;;;19.95;13.70;;;15.80;76.90;;;;;;5071378;28;20501;-76
2023/05/05 02:58:01;;;;;;;19.33;13.50;;;15.70;77.70;;;;;;5054483;28;20029;-76
2023/05/05 03:00:51;;;;;;;22.70;14.52;;;15.60;78.20;;;;;;5054133;28;20082;-76
2023/05/05 03:03:53;;;;;;;17.73;14.00;;;15.60;78.00;;;;;;5055177;28;20059;-75
2023/05/05 03:06:26;;;;;;;20.65;14.52;;;15.50;77.80;;;;;;5053971;28;20052;-75
2023/05/05 03:09:07;;;;;;;20.65;14.75;;;15.50;78.60;;;;;;5055212;28;20044;-76
2023/05/05 03:11:48;;;;;;;20.70;15.70;;;15.40;78.40;;;;;;5055111;28;20410;-76
2023/05/05 03:14:18;;;;;;;18.38;14.15;;;15.40;78.60;;;;;;5055296;28;20052;-75
2023/05/05 03:16:45;;;;;;;20.13;14.70;;;15.40;78.60;;;;;;5053410;28;20500;-75
2023/05/05 03:19:12;;;;;;;19.15;13.98;;;15.40;78.80;;;;;;5054824;28;20362;-75
2023/05/05 03:21:39;;;;;;;22.00;15.80;;;15.40;78.90;;;;;;5054790;28;20128;-76
2023/05/05 03:24:14;;;;;;;19.20;14.43;;;15.40;79.00;;;;;;5053605;28;20029;-76
2023/05/05 03:26:40;;;;;;;20.75;14.95;;;15.30;79.00;;;;;;5070077;28;20112;-75
2023/05/05 03:29:05;;;;;;;21.27;15.70;;;15.20;79.10;;;;;;5070252;28;20108;-76
2023/05/05 03:31:31;;;;;;;20.13;15.35;;;15.20;79.40;;;;;;5053436;28;20029;-76
2023/05/05 03:33:57;;;;;;;23.15;16.90;;;15.20;79.60;;;;;;5053267;28;20029;-76
2023/05/05 03:36:22;;;;;;;20.08;15.20;;;15.20;79.80;;;;;;5070035;28;20037;-76
2023/05/05 03:38:48;;;;;;;21.38;15.85;;;15.20;80.10;;;;;;5054677;28;20029;-75
2023/05/05 03:41:14;;;;;;;20.92;15.48;;;15.10;80.40;;;;;;5054146;28;20040;-75
2023/05/05 03:43:40;;;;;;;22.73;15.73;;;15.10;80.70;;;;;;5054691;28;20064;-75
2023/05/05 03:46:05;;;;;;;21.50;15.82;;;15.10;80.80;;;;;;5053334;28;20058;-75
2023/05/05 03:48:32;;;;;;;20.88;16.00;;;15.00;81.30;;;;;;5054293;28;20033;-76
2023/05/05 03:50:58;;;;;;;21.10;15.05;;;14.90;81.40;;;;;;5053025;28;20037;-76
2023/05/05 03:53:24;;;;;;;20.33;15.07;;;14.90;81.70;;;;;;5054259;28;20032;-76
2023/05/05 03:55:51;;;;;;;19.30;15.02;;;14.90;81.80;;;;;;5054025;28;20067;-76
2023/05/05 03:58:17;;;;;;;23.00;15.30;;;14.90;82.00;;;;;;5069180;28;20051;-75
2023/05/05 04:00:42;;;;;;;22.00;15.90;;;14.80;82.20;;;;;;5069364;28;20029;-76
2023/05/05 04:03:08;;;;;;;24.05;15.73;;;14.80;82.40;;;;;;5053866;28;20473;-76
2023/05/05 04:05:34;;;;;;;21.77;15.40;;;14.80;82.60;;;;;;5054020;28;20033;-76
2023/05/05 04:08:00;;;;;;;22.17;15.32;;;14.80;83.30;;;;;;5071151;28;20031;-76
2023/05/05 04:10:25;;;;;;;20.92;14.63;;;14.80;82.80;;;;;;5055743;28;20526;-75
2023/05/05 04:12:51;;;;;;;23.88;17.23;;;14.80;83.20;;;;;;5073418;28;20060;-76
2023/05/05 04:15:18;;;;;;;20.80;15.77;;;14.70;83.50;;;;;;5074050;28;20063;-76
2023/05/05 04:17:43;;;;;;;21.27;14.60;;;14.70;83.80;;;;;;5070963;28;20032;-75
2023/05/05 04:20:09;;;;;;;21.50;16.00;;;14.60;84.00;;;;;;5068969;28;20393;-75
2023/05/05 04:22:35;;;;;;;21.42;14.77;;;14.60;84.00;;;;;;5035724;28;20040;-75
2023/05/05 04:25:00;;;;;;;19.50;14.75;;;14.50;84.30;;;;;;5035936;28;20025;-75
2023/05/05 04:27:28;;;;;;;21.27;16.15;;;14.50;84.40;;;;;;5052077;28;20028;-75
2023/05/05 04:29:54;;;;;;;20.30;14.05;;;14.50;84.70;;;;;;5052549;28;20071;-76
2023/05/05 04:32:19;;;;;;;19.20;13.48;;;14.50;85.00;;;;;;5052247;28;20469;-77
2023/05/05 04:34:45;;;;;;;19.77;13.60;;;14.50;85.10;;;;;;5053487;28;20469;-77
2023/05/05 04:37:11;;;;;;;23.05;15.13;;;14.50;85.30;;;;;;5052058;28;20029;-77
2023/05/05 04:39:37;;;;;;;20.58;13.68;;;14.50;85.60;;;;;;5053211;28;20044;-76
2023/05/05 04:42:02;;;;;;;18.80;13.60;;;14.50;85.70;;;;;;5053636;28;20179;-77
2023/05/05 04:44:28;;;;;;;19.55;12.63;;;14.40;86.10;;;;;;5053250;28;20040;-76
2023/05/05 04:46:54;;;;;;;18.75;13.63;;;14.40;86.30;;;;;;5035470;28;20052;-77
2023/05/05 04:49:19;;;;;;;19.75;12.80;;;14.40;86.80;;;;;;5052111;28;20425;-77
2023/05/05 04:51:45;;;;;;;19.50;13.55;;;14.40;87.20;;;;;;5051903;28;20025;-76
2023/05/05 04:54:11;;;;;;;20.48;13.02;;;14.40;87.60;;;;;;5053581;28;20067;-78
2023/05/05 04:56:37;;;;;;;17.13;13.40;;;14.30;87.50;;;;;;5051810;28;20060;-78
2023/05/05 04:59:02;;;;;;;18.65;12.10;;;14.30;87.60;;;;;;5051978;28;20033;-77
2023/05/05 05:01:30;;;;;;;17.52;10.60;;;14.30;87.80;;;;;;5051835;28;20128;-77
2023/05/05 05:03:56;;;;;;;17.63;11.45;;;14.30;88.50;;;;;;5051203;28;20037;-76
2023/05/05 05:06:21;;;;;;;17.50;10.98;;;14.30;88.60;;;;;;5053079;28;20032;-77
2023/05/05 05:08:47;;;;;;;14.32;10.57;;;14.30;88.80;;;;;;5053134;28;20040;-78
2023/05/05 05:11:12;;;;;;;13.95;10.30;;;14.30;88.70;;;;;;5051793;28;20032;-78
2023/05/05 05:13:38;;;;;;;13.55;9.82;;;14.40;88.90;;;;;;5060622;28;20457;-77
2023/05/05 05:16:05;;;;;;;12.13;8.65;;;14.40;89.00;;;;;;5054971;28;20035;-78
2023/05/05 05:18:30;;;;;;;12.95;9.30;;;14.40;89.30;;;;;;5060499;28;20519;-78
2023/05/05 05:20:56;;;;;;;12.65;8.80;;;14.40;89.30;;;;;;5072893;28;20107;-78
2023/05/05 05:23:22;;;;;;;16.95;9.05;;;14.40;89.50;;;;;;5071433;28;20421;-78
2023/05/05 05:25:47;;;;;;;11.60;8.13;;;14.50;89.80;;;;;;5070775;28;20039;-78
2023/05/05 05:28:13;;;;;;;13.02;8.25;;;14.50;89.90;;;;;;5076742;28;20483;-78
2023/05/05 05:30:38;;;;;;;14.18;8.02;;;14.50;90.00;;;;;;5077427;28;20583;-77
2023/05/05 05:33:04;;;;;;;11.10;7.00;;;14.60;90.20;;;;;;5075001;28;20039;-78
2023/05/05 05:35:31;;;;;;;11.70;7.38;;;14.60;90.20;;;;;;5069656;28;20049;-77
2023/05/05 05:37:57;;;;;;;11.52;6.95;;;14.60;90.20;;;;;;5051262;28;20091;-77
2023/05/05 05:40:22;;;;;;;11.48;6.70;;;14.60;90.30;;;;;;5056336;28;20056;-75
2023/05/05 05:42:48;;;;;;;11.10;5.90;;;14.60;90.50;;;;;;5071932;28;20033;-76
2023/05/05 05:45:13;;;;;;;12.88;6.15;;;14.70;90.60;;;;;;5063912;28;20454;-77
2023/05/05 05:47:39;;;;;;;10.80;6.85;;;14.70;90.70;;;;;;5076369;28;20074;-77
2023/05/05 05:50:05;;;;;;;8.80;5.60;;;14.70;90.70;;;;;;5076295;28;20449;-76
2023/05/05 05:52:31;;;;;;;10.60;5.57;;;14.70;90.70;;;;;;5075168;28;20112;-76
2023/05/05 05:54:58;;;;;;;9.25;6.05;;;14.70;90.80;;;;;;5076085;28;20056;-76
2023/05/05 05:57:24;;;;;;;8.32;5.32;;;14.70;90.90;;;;;;5074486;28;20032;-77
2023/05/05 05:59:49;;;;;;;15.23;6.07;;;14.80;90.90;;;;;;5058423;28;20040;-77
2023/05/05 06:02:15;;;;;;;8.80;5.28;;;14.80;90.90;;;;;;5057656;28;20045;-77
2023/05/05 06:04:41;;;;;;;9.82;5.90;;;14.80;90.90;;;;;;5076423;28;20409;-77
2023/05/05 06:07:07;;;;;;;10.68;6.45;;;14.90;91.10;;;;;;5074984;28;20022;-78
2023/05/05 06:09:32;;;;;;;11.02;6.95;;;14.90;91.10;;;;;;5074804;28;20546;-78
2023/05/05 06:11:58;;;;;;;11.07;6.97;;;14.90;91.20;;;;;;5074507;28;20024;-77
2023/05/05 06:14:24;;;;;;;11.80;7.53;;;14.90;91.20;;;;;;5058127;28;20032;-76
2023/05/05 06:16:51;;;;;;;14.45;7.40;;;15.00;91.40;;;;;;5074931;28;20020;-77
2023/05/05 06:19:16;;;;;;;10.88;6.30;;;15.00;91.40;;;;;;5075938;28;20056;-77
2023/05/05 06:21:42;;;;;;;12.38;7.07;;;15.10;91.60;;;;;;5072444;28;20549;-77
2023/05/05 06:24:08;;;;;;;12.05;7.43;;;15.20;91.80;;;;;;5057796;28;20089;-77
2023/05/05 06:26:33;;;;;;;12.00;8.00;;;15.20;91.90;;;;;;5074242;28;20016;-78
2023/05/05 06:28:59;;;;;;;13.65;7.47;;;15.20;92.30;;;;;;5075525;28;20059;-76
2023/05/05 06:31:25;;;;;;;13.45;7.65;;;15.30;92.10;;;;;;5054545;28;20025;-76
2023/05/05 06:33:50;;;;;;;13.13;8.10;;;15.30;92.30;;;;;;5073550;28;20381;-76
2023/05/05 06:36:16;;;;;;;14.63;8.32;;;15.40;92.40;;;;;;5075554;28;20060;-76
2023/05/05 06:38:41;;;;;;;14.32;8.30;;;15.40;92.30;;;;;;5074402;28;20032;-77
2023/05/05 06:41:07;;;;;;;13.45;8.15;;;15.50;92.40;;;;;;5073807;28;20496;-77
2023/05/05 06:43:33;;;;;;;16.15;9.45;;;15.50;92.50;;;;;;5074461;28;20044;-78
2023/05/05 06:45:59;;;;;;;14.57;7.75;;;15.60;92.50;;;;;;5074139;28;20036;-76
2023/05/05 06:48:25;;;;;;;15.98;8.60;;;15.70;92.50;;;;;;5074010;28;20029;-76
2023/05/05 06:50:51;;;;;;;14.63;8.25;;;15.70;92.50;;;;;;5074151;28;20036;-76
2023/05/05 06:53:16;;;;;;;13.38;7.90;;;15.80;92.70;;;;;;5073972;28;20040;-77
2023/05/05 06:55:47;;;;;;;13.57;8.48;;;15.80;92.60;;;;;;5073991;28;20033;-76
2023/05/05 06:58:13;;;;;;;14.95;8.77;;;15.90;92.50;;;;;;5075137;28;20036;-76
2023/05/05 07:00:39;;;;;;;17.25;9.20;;;16.00;92.60;;;;;;5074972;28;20029;-77
2023/05/05 07:03:05;;;;;;;16.30;10.18;;;16.00;92.60;;;;;;5075276;28;20029;-76
2023/05/05 07:05:31;;;;;;;16.42;9.75;;;16.00;92.60;;;;;;5075373;28;20024;-76
2023/05/05 07:07:57;;;;;;;15.75;9.57;;;16.10;92.70;;;;;;5074082;28;20025;-76
2023/05/05 07:10:24;;;;;;;20.00;10.70;;;16.10;92.60;;;;;;5075211;28;20040;-76
2023/05/05 07:12:50;;;;;;;14.50;9.00;;;16.10;92.70;;;;;;5074793;28;20039;-77
2023/05/05 07:15:17;;;;;;;14.85;9.45;;;16.20;92.60;;;;;;5074532;28;20040;-76
2023/05/05 07:17:43;;;;;;;19.52;10.65;;;16.20;92.60;;;;;;5074749;28;20036;-76
2023/05/05 07:20:09;;;;;;;18.13;11.52;;;16.20;92.70;;;;;;5074374;28;20025;-76
2023/05/05 07:22:35;;;;;;;19.58;10.32;;;16.20;92.70;;;;;;5073411;28;20032;-75
2023/05/05 07:25:02;;;;;;;16.77;10.77;;;16.30;92.60;;;;;;5074889;28;20059;-76
2023/05/05 07:27:29;;;;;;;18.52;11.18;;;16.30;92.60;;;;;;5074704;28;20035;-77
2023/05/05 07:29:54;;;;;;;14.65;9.45;;;16.30;92.50;;;;;;5074589;28;20029;-76
2023/05/05 07:32:20;;;;;;;15.82;10.10;;;16.40;92.60;;;;;;5072987;28;20041;-76
2023/05/05 07:34:46;;;;;;;14.27;9.50;;;16.40;92.00;;;;;;5074228;28;20090;-78
2023/05/05 07:37:13;;;;;;;13.05;8.02;;;16.40;91.90;;;;;;5074284;28;20032;-75
2023/05/05 07:39:38;;;;;;;13.77;8.15;;;16.50;91.80;;;;;;5074118;28;20044;-78
2023/05/05 07:42:05;;;;;;;12.07;7.88;;;16.50;91.60;;;;;;5073750;28;20059;-77
2023/05/05 07:44:31;;;;;;;14.85;8.23;;;16.60;91.50;;;;;;5073870;28;20024;-77
2023/05/05 07:46:56;;;;;;;13.60;8.10;;;16.60;91.30;;;;;;5056079;28;20036;-76
2023/05/05 07:49:22;;;;;;;14.07;8.13;;;16.60;91.20;;;;;;5074126;28;20024;-76
2023/05/05 07:51:49;;;;;;;12.70;8.18;;;16.70;91.10;;;;;;5072976;28;20032;-76
2023/05/05 07:54:16;;;;;;;14.27;7.55;;;16.70;91.00;;;;;;5072936;28;20383;-76
2023/05/05 07:56:41;;;;;;;13.93;7.05;;;16.80;90.70;;;;;;5074105;28;20074;-76
2023/05/05 07:59:07;;;;;;;13.43;8.10;;;16.80;90.60;;;;;;5072573;28;20443;-76
2023/05/05 08:01:32;;;;;;;11.13;6.78;;;16.90;90.50;;;;;;5072746;28;20071;-75
2023/05/05 08:03:58;;;;;;;11.52;6.57;;;16.90;90.40;;;;;;5073733;28;20096;-76
2023/05/05 08:06:24;;;;;;;11.30;6.78;;;17.00;90.20;;;;;;5073952;28;20032;-77
2023/05/05 08:08:52;;;;;;;12.23;6.72;;;17.00;90.10;;;;;;5073839;28;20461;-76
2023/05/05 08:11:18;;;;;;;11.30;6.68;;;17.10;89.80;;;;;;5073396;28;20025;-77
2023/05/05 08:13:44;;;;;;;13.73;8.45;;;17.10;89.70;;;;;;5073394;28;20036;-77
2023/05/05 08:16:14;;;;;;;13.20;7.55;;;17.20;89.60;;;;;;5074065;28;20072;-76
2023/05/05 08:18:39;;;;;;;11.77;7.53;;;17.30;89.40;;;;;;5074340;28;20469;-76
2023/05/05 08:21:07;;;;;;;11.68;7.13;;;17.30;89.20;;;;;;5055532;28;20032;-76
2023/05/05 08:23:33;;;;;;;10.93;6.45;;;17.30;89.10;;;;;;5073638;28;20473;-76
2023/05/05 08:25:59;;;;;;;13.57;7.75;;;17.40;89.20;;;;;;5073749;28;20032;-77
2023/05/05 08:28:25;;;;;;;13.65;5.85;;;17.40;88.10;;;;;;5073834;28;20046;-77
2023/05/05 08:30:51;;;;;;;13.65;6.53;;;17.50;88.00;;;;;;5074006;28;20108;-76
2023/05/05 08:33:17;;;;;;;12.82;6.05;;;17.60;87.90;;;;;;5055811;28;20109;-76
2023/05/05 08:35:42;;;;;;;11.40;6.22;;;17.60;87.60;;;;;;5055989;28;20120;-77
2023/05/05 08:38:09;;;;;;;9.63;4.85;;;17.70;87.10;;;;;;5072192;28;20029;-77
2023/05/05 08:40:37;;;;;;;8.45;4.47;;;17.80;86.70;;;;;;5071855;28;20067;-78
2023/05/05 08:43:02;;;;;;;9.32;3.85;;;17.90;85.90;;;;;;5073785;28;20455;-78
2023/05/05 08:45:29;;;;;;;6.82;3.35;;;17.90;85.30;;;;;;5072216;28;20112;-76
2023/05/05 08:48:00;;;;;;;4.78;2.20;;;18.00;85.10;;;;;;5073630;28;20027;-77
2023/05/05 08:50:27;;;;;;;4.22;1.90;;;18.20;84.60;;;;;;5073790;28;20024;-76
2023/05/05 08:53:03;;;;;;;3.90;1.60;;;18.30;83.60;;;;;;5072170;28;20024;-77
2023/05/05 08:55:33;;;;;;;8.43;2.28;;;18.50;82.80;;;;;;5073304;28;20078;-77
2023/05/05 08:58:03;;;;;;;8.55;3.50;;;18.70;82.00;;;;;;5077271;28;20158;-78
2023/05/05 09:00:29;;;;;;;8.73;4.28;;;18.90;81.60;;;;;;5059703;28;20119;-79
2023/05/05 09:02:56;;;;;;;9.30;4.68;;;19.10;81.40;;;;;;5076020;28;20021;-77
2023/05/05 09:05:23;;;;;;;9.77;4.40;;;19.20;80.90;;;;;;5077514;28;20146;-77
2023/05/05 09:07:49;;;;;;;8.25;4.30;;;19.50;80.60;;;;;;5077242;28;20021;-77
2023/05/05 09:10:16;;;;;;;7.25;4.72;;;19.60;80.00;;;;;;5076134;28;20059;-76
2023/05/05 09:12:42;;;;;;;10.38;5.63;;;19.80;79.50;;;;;;5075790;28;20036;-76
2023/05/05 09:15:14;;;;;;;6.30;4.07;;;19.90;78.80;;;;;;5076073;28;20024;-77
2023/05/05 09:17:42;;;;;;;8.25;4.82;;;20.10;78.40;;;;;;5075644;28;20024;-77
2023/05/05 09:20:10;;;;;;;9.43;4.80;;;20.30;77.80;;;;;;5075645;28;20037;-77
2023/05/05 09:22:42;;;;;;;7.97;4.75;;;20.40;77.20;;;;;;5076622;28;20032;-76
2023/05/05 09:25:11;;;;;;;7.07;3.63;;;20.50;76.50;;;;;;5077189;28;20055;-78
2023/05/05 09:27:45;;;;;;;10.70;4.15;;;20.60;75.90;;;;;;5075374;28;20111;-77
2023/05/05 09:30:15;;;;;;;8.48;4.40;;;20.70;75.40;;;;;;5075689;28;20349;-77
2023/05/05 09:32:52;;;;;;;6.57;3.97;;;20.90;74.70;;;;;;5076877;28;20020;-76
2023/05/05 09:35:19;;;;;;;7.95;3.75;;;21.00;73.90;;;;;;5076922;28;20392;-78
2023/05/05 09:37:45;;;;;;;6.35;3.72;;;21.00;73.40;;;;;;5075783;28;20108;-76
2023/05/05 09:40:13;;;;;;;6.75;3.42;;;21.20;73.20;;;;;;5075188;28;20170;-77
2023/05/05 09:42:39;;;;;;;4.78;2.97;;;21.20;72.20;;;;;;5074863;28;20037;-78
2023/05/05 09:45:24;;;;;;;5.53;3.00;;;21.30;71.60;;;;;;5058544;28;20020;-78
2023/05/05 09:47:50;;;;;;;4.75;2.28;;;21.30;71.00;;;;;;5076499;28;20503;-77
2023/05/05 09:50:19;;;;;;;5.65;2.80;;;21.40;70.80;;;;;;5058272;28;20107;-77
2023/05/05 09:52:59;;;;;;;7.90;2.67;;;21.50;70.30;;;;;;5076502;28;20024;-77
2023/05/05 09:55:25;;;;;;;6.07;2.40;;;21.50;70.10;;;;;;5076698;28;20024;-77
2023/05/05 09:57:51;;;;;;;4.53;2.70;;;21.60;68.70;;;;;;5076150;28;20024;-78
2023/05/05 10:00:17;;;;;;;9.05;3.10;;;21.70;68.30;;;;;;5076463;28;20031;-77
2023/05/05 10:02:43;;;;;;;7.93;3.38;;;21.80;68.10;;;;;;5076179;28;20028;-78
2023/05/05 10:05:14;;;;;;;4.90;2.58;;;21.90;67.70;;;;;;5076252;28;20025;-77
2023/05/05 10:07:41;;;;;;;8.60;3.28;;;22.00;67.60;;;;;;5075631;28;20024;-78
2023/05/05 10:10:12;;;;;;;6.07;3.05;;;22.00;67.20;;;;;;5074929;28;20120;-78
2023/05/05 10:12:38;;;;;;;4.85;2.67;;;22.00;67.20;;;;;;5074645;28;20029;-78
2023/05/05 10:15:06;;;;;;;6.82;2.85;;;22.00;67.00;;;;;;5074885;28;20354;-78
2023/05/05 10:17:35;;;;;;;6.45;2.25;;;22.00;66.50;;;;;;5076056;28;20024;-78
2023/05/05 10:20:02;;;;;;;4.25;1.73;;;22.00;66.20;;;;;;5074828;28;20070;-78
2023/05/05 10:22:33;;;;;;;3.75;1.35;;;22.00;66.10;;;;;;5075961;28;20016;-78
2023/05/05 10:25:03;;;;;;;4.80;2.40;;;22.00;66.10;;;;;;5074788;28;20024;-77
2023/05/05 10:27:36;;;;;;;4.75;2.05;;;21.90;65.70;;;;;;5065720;28;20085;-78
2023/05/05 10:30:15;;;;;;;6.97;2.17;;;21.90;65.30;;;;;;5071003;28;20021;-79
2023/05/05 10:32:49;;;;;;;5.05;1.88;;;21.80;65.30;;;;;;5054146;28;20071;-78
2023/05/05 10:35:16;;;;;;;;;;;21.70;65.40;;;;;;5075405;28;20046;-78
2023/05/05 10:37:43;;;;;;;5.00;1.50;;;21.70;65.50;;;;;;5075472;28;20019;-78
2023/05/05 10:40:09;;;;;;;6.28;1.98;;;21.70;65.70;;;;;;5074301;28;20150;-78
2023/05/05 10:42:39;;;;;;;5.32;1.55;;;21.80;65.40;;;;;;5057441;28;21642;-77
2023/05/05 10:45:05;;;;;;;4.15;2.03;;;21.90;65.30;;;;;;5074081;28;20024;-77
2023/05/05 10:47:32;;;;;;;7.10;2.15;;;22.00;65.30;;;;;;5074127;28;20017;-78
2023/05/05 10:50:25;;;;;;;6.65;2.42;;;22.00;65.20;;;;;;5075160;28;20021;-78
2023/05/05 10:53:07;;;;;;;5.87;2.00;;;22.00;65.00;;;;;;5075408;28;20062;-77
2023/05/05 10:56:04;;;;;;;5.82;2.28;;;22.00;65.10;;;;;;5074274;28;20131;-76
2023/05/05 10:58:34;;;;;;;4.18;1.77;;;21.90;65.10;;;;;;5072244;28;20496;-78
2023/05/05 11:01:01;;;;;;;3.85;1.10;;;21.90;65.10;;;;;;5075193;28;20032;-78
2023/05/05 11:03:27;;;;;;;2.72;0.60;;;22.00;65.00;;;;;;5074684;28;20036;-76
2023/05/05 11:06:02;;;;;;;3.03;0.60;;;21.90;64.40;;;;;;5075210;28;20338;-76
2023/05/05 11:08:32;;;;;;;3.30;0.60;;;21.80;63.30;;;;;;5075110;28;20024;-76
2023/05/05 11:10:58;;;;;;;2.35;0.40;;;21.70;63.40;;;;;;5073817;28;20021;-77
2023/05/05 11:13:24;;;;;;;5.28;0.82;;;21.50;63.60;;;;;;5074690;28;20162;-77
2023/05/05 11:15:54;;;;;;;2.30;0.68;;;21.50;63.60;;;;;;5075003;28;20062;-77
2023/05/05 11:18:36;;;;;;;5.70;0.73;;;21.30;63.80;;;;;;5074148;28;20024;-78
2023/05/05 11:21:02;;;;;;;5.00;1.02;;;21.20;64.50;;;;;;5073388;28;20075;-78
2023/05/05 11:23:28;;;;;;;2.72;1.05;;;21.10;66.10;;;;;;5074453;28;20410;-77
2023/05/05 11:25:56;;;;;;;7.35;1.50;;;20.90;69.20;;;;;;5074721;28;20040;-76
2023/05/05 11:28:29;;;;;;;3.85;1.60;;;20.70;71.70;;;;;;5056881;28;20041;-76
2023/05/05 11:30:55;;;;;;;6.97;1.83;;;20.50;72.50;;;;;;5074614;28;20021;-76
2023/05/05 11:33:29;;;;;;;6.05;1.90;;;20.30;72.50;;;;;;5068313;28;20389;-75
2023/05/05 11:36:01;;;;;;;8.63;0.88;;;20.10;73.60;;;;;;5062663;28;20033;-74
2023/05/05 11:38:30;;;;;;;2.90;0.20;;;19.70;70.00;;;;;;5069681;28;20453;-75
2023/05/05 11:41:04;;;;;;;1.88;0.20;;;19.00;70.40;;;;;;5072281;28;20535;-74
2023/05/05 11:43:30;;;;;;;1.35;0.30;;;18.40;74.10;;;;;;5072866;28;20033;-74
2023/05/05 11:46:15;;;;;;;1.38;0.20;;;17.80;77.10;;;;;;5073105;28;20040;-75
2023/05/05 11:48:45;;;;;;;5.00;0.40;;;17.30;80.70;;;;;;5066723;28;20380;-75
2023/05/05 11:51:15;;;;;;;2.70;0.30;;;16.70;83.30;;;;;;5075624;28;20032;-74
2023/05/05 11:53:48;;;;;;;1.65;0.30;;;16.20;88.50;;;;;;5073984;28;20028;-77
2023/05/05 11:56:17;;;;;;;3.15;0.40;;;15.60;90.50;;;;;;5073948;28;20036;-82
2023/05/05 11:58:44;;;;;;;4.30;0.75;;;15.10;92.70;;;;;;5072511;28;20382;-79
2023/05/05 12:01:13;;;;;;;2.95;0.50;;;14.80;94.70;;;;;;5073745;28;20059;-78
2023/05/05 12:03:39;;;;;;;1.95;0.50;;;14.50;97.00;;;;;;5068295;28;20029;-78
2023/05/05 12:06:06;;;;;;;2.28;0.60;;;14.30;98.90;;;;;;5069996;28;20033;-78
2023/05/05 12:08:39;;;;;;;1.83;0.50;;;14.20;99.90;;;;;;5072373;28;20029;-79
2023/05/05 12:11:10;;;;;;;2.47;0.70;;;14.10;99.90;;;;;;5058395;28;20354;-78
2023/05/05 12:13:35;;;;;;;3.58;0.50;;;14.00;99.90;;;;;;5064786;28;20032;-78
2023/05/05 12:16:12;;;;;;;1.73;0.50;;;14.00;99.90;;;;;;5097889;28;20028;-78
2023/05/05 12:18:38;;;;;;;3.45;0.50;;;14.00;99.90;;;;;;5067391;28;20036;-78
2023/05/05 12:21:18;;;;;;;2.75;0.82;;;14.00;99.90;;;;;;5061454;28;20036;-77
2023/05/05 12:23:44;;;;;;;2.33;0.60;;;14.00;99.90;;;;;;5060362;28;20396;-77
2023/05/05 12:26:26;;;;;;;1.73;0.50;;;14.10;99.90;;;;;;5072105;28;20032;-80
2023/05/05 12:28:59;;;;;;;2.80;0.90;;;14.10;99.90;;;;;;5073673;28;20110;-77
2023/05/05 12:31:34;;;;;;;1.92;0.60;;;14.00;99.90;;;;;;5073351;28;20388;-78
2023/05/05 12:34:04;;;;;;;3.25;0.60;;;14.10;99.90;;;;;;5072697;28;20388;-79
2023/05/05 12:36:32;;;;;;;6.10;0.63;;;14.10;99.90;;;;;;5059986;28;20013;-79
2023/05/05 12:38:58;;;;;;;2.35;0.65;;;14.10;99.90;;;;;;5072122;28;20473;-78
2023/05/05 12:41:24;;;;;;;3.28;0.73;;;14.10;99.90;;;;;;5067192;28;20052;-77
2023/05/05 12:43:54;;;;;;;1.25;0.50;;;14.20;99.90;;;;;;5069370;28;20028;-78
2023/05/05 12:46:21;;;;;;;2.13;0.40;;;14.20;99.90;;;;;;5070670;28;20082;-78